sensor_id;sensor_type;location;lat;lon;timestamp;P1;durP1;ratioP1;P2;durP2;ratioP2
41333;SDS011;27078;46.428;6.256;2023-04-24T00:01:14;1.67;;;0.20;;
41333;SDS011;27078;46.428;6.256;2023-04-24T00:03:40;1.35;;;0.20;;
41333;SDS011;27078;46.428;6.256;2023-04-24T00:06:06;1.13;;;0.40;;
41333;SDS011;27078;46.428;6.256;2023-04-24T00:08:33;1.75;;;0.30;;
41333;SDS011;27078;46.428;6.256;2023-04-24T00:10:59;1.20;;;0.40;;
41333;SDS011;27078;46.428;6.256;2023-04-24T00:13:24;1.13;;;0.20;;
41333;SDS011;27078;46.428;6.256;2023-04-24T00:15:50;1.58;;;0.40;;
41333;SDS011;27078;46.428;6.256;2023-04-24T00:18:16;0.85;;;0.40;;
41333;SDS011;27078;46.428;6.256;2023-04-24T00:20:41;0.63;;;0.20;;
41333;SDS011;27078;46.428;6.256;2023-04-24T00:23:08;1.13;;;0.10;;
41333;SDS011;27078;46.428;6.256;2023-04-24T00:25:34;0.70;;;0.28;;
41333;SDS011;27078;46.428;6.256;2023-04-24T00:27:59;5.28;;;1.00;;
41333;SDS011;27078;46.428;6.256;2023-04-24T00:30:24;1.60;;;0.50;;
41333;SDS011;27078;46.428;6.256;2023-04-24T00:32:50;0.90;;;0.32;;
41333;SDS011;27078;46.428;6.256;2023-04-24T00:35:15;1.00;;;0.57;;
41333;SDS011;27078;46.428;6.256;2023-04-24T00:37:41;1.70;;;0.80;;
41333;SDS011;27078;46.428;6.256;2023-04-24T00:40:07;2.63;;;1.00;;
41333;SDS011;27078;46.428;6.256;2023-04-24T00:42:32;1.73;;;1.00;;
41333;SDS011;27078;46.428;6.256;2023-04-24T00:44:58;3.83;;;1.00;;
41333;SDS011;27078;46.428;6.256;2023-04-24T00:47:25;2.95;;;0.98;;
41333;SDS011;27078;46.428;6.256;2023-04-24T00:49:51;3.15;;;1.00;;
41333;SDS011;27078;46.428;6.256;2023-04-24T00:52:17;3.13;;;1.17;;
41333;SDS011;27078;46.428;6.256;2023-04-24T00:54:43;2.22;;;1.20;;
41333;SDS011;27078;46.428;6.256;2023-04-24T00:57:10;1.73;;;0.95;;
41333;SDS011;27078;46.428;6.256;2023-04-24T00:59:35;1.95;;;0.93;;
41333;SDS011;27078;46.428;6.256;2023-04-24T01:02:01;2.58;;;1.10;;
41333;SDS011;27078;46.428;6.256;2023-04-24T01:04:27;2.08;;;1.20;;
41333;SDS011;27078;46.428;6.256;2023-04-24T01:06:53;2.92;;;1.60;;
41333;SDS011;27078;46.428;6.256;2023-04-24T01:09:21;2.97;;;1.30;;
41333;SDS011;27078;46.428;6.256;2023-04-24T01:11:48;2.92;;;1.40;;
41333;SDS011;27078;46.428;6.256;2023-04-24T01:14:14;2.38;;;1.30;;
41333;SDS011;27078;46.428;6.256;2023-04-24T01:16:40;4.35;;;1.48;;
41333;SDS011;27078;46.428;6.256;2023-04-24T01:19:06;2.55;;;1.45;;
41333;SDS011;27078;46.428;6.256;2023-04-24T01:21:32;4.05;;;1.77;;
41333;SDS011;27078;46.428;6.256;2023-04-24T01:24:01;4.60;;;1.40;;
41333;SDS011;27078;46.428;6.256;2023-04-24T01:26:27;3.38;;;1.55;;
41333;SDS011;27078;46.428;6.256;2023-04-24T01:28:52;2.72;;;1.45;;
41333;SDS011;27078;46.428;6.256;2023-04-24T01:31:18;2.00;;;1.50;;
41333;SDS011;27078;46.428;6.256;2023-04-24T01:33:44;2.70;;;1.40;;
41333;SDS011;27078;46.428;6.256;2023-04-24T01:36:13;3.35;;;1.60;;
41333;SDS011;27078;46.428;6.256;2023-04-24T01:38:39;2.95;;;1.58;;
41333;SDS011;27078;46.428;6.256;2023-04-24T01:41:04;4.50;;;1.45;;
41333;SDS011;27078;46.428;6.256;2023-04-24T01:43:30;2.63;;;1.33;;
41333;SDS011;27078;46.428;6.256;2023-04-24T01:45:55;2.13;;;1.30;;
41333;SDS011;27078;46.428;6.256;2023-04-24T01:48:21;2.78;;;1.27;;
41333;SDS011;27078;46.428;6.256;2023-04-24T01:50:47;4.80;;;1.48;;
41333;SDS011;27078;46.428;6.256;2023-04-24T01:53:12;3.45;;;1.67;;
41333;SDS011;27078;46.428;6.256;2023-04-24T01:55:38;2.60;;;1.48;;
41333;SDS011;27078;46.428;6.256;2023-04-24T01:58:03;3.47;;;1.60;;
41333;SDS011;27078;46.428;6.256;2023-04-24T02:00:28;3.65;;;1.45;;
41333;SDS011;27078;46.428;6.256;2023-04-24T02:02:54;5.22;;;1.50;;
41333;SDS011;27078;46.428;6.256;2023-04-24T02:05:19;3.65;;;1.48;;
41333;SDS011;27078;46.428;6.256;2023-04-24T02:07:45;2.28;;;1.60;;
41333;SDS011;27078;46.428;6.256;2023-04-24T02:10:10;2.60;;;1.52;;
41333;SDS011;27078;46.428;6.256;2023-04-24T02:12:36;4.15;;;1.63;;
41333;SDS011;27078;46.428;6.256;2023-04-24T02:15:01;3.28;;;1.67;;
41333;SDS011;27078;46.428;6.256;2023-04-24T02:17:27;3.97;;;2.00;;
41333;SDS011;27078;46.428;6.256;2023-04-24T02:19:53;3.67;;;1.80;;
41333;SDS011;27078;46.428;6.256;2023-04-24T02:22:18;3.28;;;1.67;;
41333;SDS011;27078;46.428;6.256;2023-04-24T02:24:44;2.92;;;1.60;;
41333;SDS011;27078;46.428;6.256;2023-04-24T02:27:09;4.32;;;1.90;;
41333;SDS011;27078;46.428;6.256;2023-04-24T02:29:36;3.55;;;1.60;;
41333;SDS011;27078;46.428;6.256;2023-04-24T02:32:01;2.97;;;1.80;;
41333;SDS011;27078;46.428;6.256;2023-04-24T02:34:27;3.83;;;1.70;;
41333;SDS011;27078;46.428;6.256;2023-04-24T02:36:52;2.58;;;1.60;;
41333;SDS011;27078;46.428;6.256;2023-04-24T02:39:18;4.00;;;1.60;;
41333;SDS011;27078;46.428;6.256;2023-04-24T02:41:44;4.13;;;1.70;;
41333;SDS011;27078;46.428;6.256;2023-04-24T02:44:09;3.05;;;1.50;;
41333;SDS011;27078;46.428;6.256;2023-04-24T02:46:35;3.38;;;1.52;;
41333;SDS011;27078;46.428;6.256;2023-04-24T02:49:00;3.13;;;1.33;;
41333;SDS011;27078;46.428;6.256;2023-04-24T02:51:25;3.10;;;1.50;;
41333;SDS011;27078;46.428;6.256;2023-04-24T02:53:51;3.10;;;1.50;;
41333;SDS011;27078;46.428;6.256;2023-04-24T02:56:17;2.03;;;1.40;;
41333;SDS011;27078;46.428;6.256;2023-04-24T02:58:42;3.20;;;1.27;;
41333;SDS011;27078;46.428;6.256;2023-04-24T03:01:08;2.60;;;1.40;;
41333;SDS011;27078;46.428;6.256;2023-04-24T03:03:34;3.40;;;1.40;;
41333;SDS011;27078;46.428;6.256;2023-04-24T03:06:00;4.45;;;1.55;;
41333;SDS011;27078;46.428;6.256;2023-04-24T03:08:26;3.92;;;1.60;;
41333;SDS011;27078;46.428;6.256;2023-04-24T03:10:51;2.60;;;1.40;;
41333;SDS011;27078;46.428;6.256;2023-04-24T03:13:17;3.75;;;1.48;;
41333;SDS011;27078;46.428;6.256;2023-04-24T03:15:42;3.20;;;1.40;;
41333;SDS011;27078;46.428;6.256;2023-04-24T03:18:07;2.70;;;1.73;;
41333;SDS011;27078;46.428;6.256;2023-04-24T03:20:33;2.75;;;1.52;;
41333;SDS011;27078;46.428;6.256;2023-04-24T03:22:58;4.68;;;1.70;;
41333;SDS011;27078;46.428;6.256;2023-04-24T03:25:23;2.72;;;1.45;;
41333;SDS011;27078;46.428;6.256;2023-04-24T03:27:49;3.35;;;1.55;;
41333;SDS011;27078;46.428;6.256;2023-04-24T03:30:14;3.92;;;1.65;;
41333;SDS011;27078;46.428;6.256;2023-04-24T03:32:39;2.08;;;1.30;;
41333;SDS011;27078;46.428;6.256;2023-04-24T03:35:08;2.55;;;1.38;;
41333;SDS011;27078;46.428;6.256;2023-04-24T03:37:33;2.83;;;1.20;;
41333;SDS011;27078;46.428;6.256;2023-04-24T03:39:59;4.88;;;1.40;;
41333;SDS011;27078;46.428;6.256;2023-04-24T03:42:25;3.67;;;1.27;;
41333;SDS011;27078;46.428;6.256;2023-04-24T03:44:50;2.90;;;1.58;;
41333;SDS011;27078;46.428;6.256;2023-04-24T03:47:15;3.42;;;1.30;;
41333;SDS011;27078;46.428;6.256;2023-04-24T03:49:41;3.28;;;1.38;;
41333;SDS011;27078;46.428;6.256;2023-04-24T03:52:06;3.15;;;1.40;;
41333;SDS011;27078;46.428;6.256;2023-04-24T03:54:31;3.58;;;1.30;;
41333;SDS011;27078;46.428;6.256;2023-04-24T03:56:57;3.10;;;1.23;;
41333;SDS011;27078;46.428;6.256;2023-04-24T03:59:22;2.75;;;1.27;;
41333;SDS011;27078;46.428;6.256;2023-04-24T04:01:48;4.53;;;1.10;;
41333;SDS011;27078;46.428;6.256;2023-04-24T04:04:13;4.50;;;1.00;;
41333;SDS011;27078;46.428;6.256;2023-04-24T04:06:39;2.47;;;1.02;;
41333;SDS011;27078;46.428;6.256;2023-04-24T04:09:04;3.28;;;1.10;;
41333;SDS011;27078;46.428;6.256;2023-04-24T04:11:30;1.85;;;0.95;;
41333;SDS011;27078;46.428;6.256;2023-04-24T04:13:56;2.15;;;0.85;;
41333;SDS011;27078;46.428;6.256;2023-04-24T04:16:22;3.00;;;0.80;;
41333;SDS011;27078;46.428;6.256;2023-04-24T04:18:47;5.78;;;1.15;;
41333;SDS011;27078;46.428;6.256;2023-04-24T04:21:13;3.08;;;1.20;;
41333;SDS011;27078;46.428;6.256;2023-04-24T04:23:38;2.85;;;1.13;;
41333;SDS011;27078;46.428;6.256;2023-04-24T04:26:04;3.13;;;0.93;;
41333;SDS011;27078;46.428;6.256;2023-04-24T04:28:30;1.23;;;0.68;;
41333;SDS011;27078;46.428;6.256;2023-04-24T04:30:56;2.60;;;0.90;;
41333;SDS011;27078;46.428;6.256;2023-04-24T04:33:22;1.17;;;0.63;;
41333;SDS011;27078;46.428;6.256;2023-04-24T04:35:48;1.90;;;0.65;;
41333;SDS011;27078;46.428;6.256;2023-04-24T04:38:14;3.35;;;0.63;;
41333;SDS011;27078;46.428;6.256;2023-04-24T04:40:42;2.50;;;0.70;;
41333;SDS011;27078;46.428;6.256;2023-04-24T04:43:07;1.90;;;0.60;;
41333;SDS011;27078;46.428;6.256;2023-04-24T04:45:33;2.92;;;0.40;;
41333;SDS011;27078;46.428;6.256;2023-04-24T04:47:59;3.10;;;0.38;;
41333;SDS011;27078;46.428;6.256;2023-04-24T04:50:28;1.90;;;0.40;;
41333;SDS011;27078;46.428;6.256;2023-04-24T04:52:54;1.98;;;0.35;;
41333;SDS011;27078;46.428;6.256;2023-04-24T04:55:19;2.17;;;0.30;;
41333;SDS011;27078;46.428;6.256;2023-04-24T04:57:45;2.92;;;0.30;;
41333;SDS011;27078;46.428;6.256;2023-04-24T05:00:11;0.90;;;0.30;;
41333;SDS011;27078;46.428;6.256;2023-04-24T05:02:37;1.10;;;0.25;;
41333;SDS011;27078;46.428;6.256;2023-04-24T05:05:02;1.38;;;0.28;;
41333;SDS011;27078;46.428;6.256;2023-04-24T05:07:28;2.40;;;0.30;;
41333;SDS011;27078;46.428;6.256;2023-04-24T05:09:53;0.50;;;0.22;;
41333;SDS011;27078;46.428;6.256;2023-04-24T05:12:18;1.67;;;0.20;;
41333;SDS011;27078;46.428;6.256;2023-04-24T05:14:44;0.80;;;0.20;;
41333;SDS011;27078;46.428;6.256;2023-04-24T05:17:09;0.40;;;0.10;;
41333;SDS011;27078;46.428;6.256;2023-04-24T05:19:35;0.70;;;0.13;;
41333;SDS011;27078;46.428;6.256;2023-04-24T05:22:02;0.38;;;0.17;;
41333;SDS011;27078;46.428;6.256;2023-04-24T05:24:29;0.65;;;0.10;;
41333;SDS011;27078;46.428;6.256;2023-04-24T05:26:54;1.20;;;0.20;;
41333;SDS011;27078;46.428;6.256;2023-04-24T05:29:20;0.80;;;0.20;;
41333;SDS011;27078;46.428;6.256;2023-04-24T05:31:46;0.47;;;0.20;;
41333;SDS011;27078;46.428;6.256;2023-04-24T05:34:11;0.47;;;0.10;;
41333;SDS011;27078;46.428;6.256;2023-04-24T05:36:37;0.45;;;0.20;;
41333;SDS011;27078;46.428;6.256;2023-04-24T05:39:02;0.55;;;0.20;;
41333;SDS011;27078;46.428;6.256;2023-04-24T05:41:29;1.25;;;0.10;;
41333;SDS011;27078;46.428;6.256;2023-04-24T05:43:55;0.45;;;0.20;;
41333;SDS011;27078;46.428;6.256;2023-04-24T05:46:20;3.10;;;0.30;;
41333;SDS011;27078;46.428;6.256;2023-04-24T05:48:45;1.27;;;0.20;;
41333;SDS011;27078;46.428;6.256;2023-04-24T05:51:11;0.40;;;0.10;;
41333;SDS011;27078;46.428;6.256;2023-04-24T05:53:36;0.85;;;0.20;;
41333;SDS011;27078;46.428;6.256;2023-04-24T05:56:01;1.52;;;0.10;;
41333;SDS011;27078;46.428;6.256;2023-04-24T05:58:27;0.28;;;0.10;;
41333;SDS011;27078;46.428;6.256;2023-04-24T06:00:52;0.38;;;0.10;;
41333;SDS011;27078;46.428;6.256;2023-04-24T06:03:18;0.45;;;0.10;;
41333;SDS011;27078;46.428;6.256;2023-04-24T06:05:43;0.57;;;0.10;;
41333;SDS011;27078;46.428;6.256;2023-04-24T06:08:09;0.80;;;0.20;;
41333;SDS011;27078;46.428;6.256;2023-04-24T06:10:34;0.20;;;0.10;;
41333;SDS011;27078;46.428;6.256;2023-04-24T06:13:00;0.30;;;0.20;;
41333;SDS011;27078;46.428;6.256;2023-04-24T06:15:29;1.40;;;0.20;;
41333;SDS011;27078;46.428;6.256;2023-04-24T06:17:56;1.15;;;0.25;;
41333;SDS011;27078;46.428;6.256;2023-04-24T06:20:21;1.83;;;0.30;;
41333;SDS011;27078;46.428;6.256;2023-04-24T06:22:47;1.02;;;0.20;;
41333;SDS011;27078;46.428;6.256;2023-04-24T06:25:12;1.40;;;0.20;;
41333;SDS011;27078;46.428;6.256;2023-04-24T06:27:37;0.65;;;0.20;;
41333;SDS011;27078;46.428;6.256;2023-04-24T06:30:03;1.67;;;0.20;;
41333;SDS011;27078;46.428;6.256;2023-04-24T06:32:29;1.42;;;0.22;;
41333;SDS011;27078;46.428;6.256;2023-04-24T06:34:55;0.63;;;0.30;;
41333;SDS011;27078;46.428;6.256;2023-04-24T06:37:21;0.82;;;0.20;;
41333;SDS011;27078;46.428;6.256;2023-04-24T06:39:46;2.65;;;0.35;;
41333;SDS011;27078;46.428;6.256;2023-04-24T06:42:12;0.93;;;0.30;;
41333;SDS011;27078;46.428;6.256;2023-04-24T06:44:37;1.60;;;0.30;;
41333;SDS011;27078;46.428;6.256;2023-04-24T06:47:08;3.05;;;0.38;;
41333;SDS011;27078;46.428;6.256;2023-04-24T06:49:38;1.48;;;0.30;;
41333;SDS011;27078;46.428;6.256;2023-04-24T06:52:03;2.13;;;0.30;;
41333;SDS011;27078;46.428;6.256;2023-04-24T06:54:29;1.60;;;0.60;;
41333;SDS011;27078;46.428;6.256;2023-04-24T06:56:56;0.88;;;0.40;;
41333;SDS011;27078;46.428;6.256;2023-04-24T06:59:22;1.65;;;0.63;;
41333;SDS011;27078;46.428;6.256;2023-04-24T07:01:50;1.35;;;0.55;;
41333;SDS011;27078;46.428;6.256;2023-04-24T07:04:16;1.42;;;0.60;;
41333;SDS011;27078;46.428;6.256;2023-04-24T07:06:42;2.30;;;0.63;;
41333;SDS011;27078;46.428;6.256;2023-04-24T07:09:08;3.88;;;0.60;;
41333;SDS011;27078;46.428;6.256;2023-04-24T07:11:34;1.23;;;0.63;;
41333;SDS011;27078;46.428;6.256;2023-04-24T07:14:01;1.35;;;0.70;;
41333;SDS011;27078;46.428;6.256;2023-04-24T07:16:28;2.92;;;0.98;;
41333;SDS011;27078;46.428;6.256;2023-04-24T07:18:53;1.80;;;0.90;;
41333;SDS011;27078;46.428;6.256;2023-04-24T07:21:18;2.30;;;0.90;;
41333;SDS011;27078;46.428;6.256;2023-04-24T07:23:44;1.65;;;0.90;;
41333;SDS011;27078;46.428;6.256;2023-04-24T07:26:09;1.83;;;0.93;;
41333;SDS011;27078;46.428;6.256;2023-04-24T07:28:35;3.55;;;1.20;;
41333;SDS011;27078;46.428;6.256;2023-04-24T07:31:00;3.95;;;1.27;;
41333;SDS011;27078;46.428;6.256;2023-04-24T07:33:26;2.92;;;1.05;;
41333;SDS011;27078;46.428;6.256;2023-04-24T07:35:51;2.80;;;0.90;;
41333;SDS011;27078;46.428;6.256;2023-04-24T07:38:17;3.58;;;1.00;;
41333;SDS011;27078;46.428;6.256;2023-04-24T07:40:46;2.35;;;0.85;;
41333;SDS011;27078;46.428;6.256;2023-04-24T07:43:11;4.47;;;1.00;;
41333;SDS011;27078;46.428;6.256;2023-04-24T07:45:36;3.20;;;1.00;;
41333;SDS011;27078;46.428;6.256;2023-04-24T07:48:02;2.85;;;0.90;;
41333;SDS011;27078;46.428;6.256;2023-04-24T07:50:28;2.25;;;0.90;;
41333;SDS011;27078;46.428;6.256;2023-04-24T07:52:53;1.77;;;0.80;;
41333;SDS011;27078;46.428;6.256;2023-04-24T07:55:19;3.03;;;0.80;;
41333;SDS011;27078;46.428;6.256;2023-04-24T07:57:44;1.98;;;0.85;;
41333;SDS011;27078;46.428;6.256;2023-04-24T08:00:10;1.90;;;0.88;;
41333;SDS011;27078;46.428;6.256;2023-04-24T08:02:35;2.35;;;0.80;;
41333;SDS011;27078;46.428;6.256;2023-04-24T08:05:01;2.40;;;0.80;;
41333;SDS011;27078;46.428;6.256;2023-04-24T08:07:28;3.67;;;0.80;;
41333;SDS011;27078;46.428;6.256;2023-04-24T08:09:53;6.38;;;1.10;;
41333;SDS011;27078;46.428;6.256;2023-04-24T08:12:19;1.85;;;0.70;;
41333;SDS011;27078;46.428;6.256;2023-04-24T08:14:44;1.98;;;0.80;;
41333;SDS011;27078;46.428;6.256;2023-04-24T08:17:10;2.60;;;0.80;;
41333;SDS011;27078;46.428;6.256;2023-04-24T08:19:35;3.10;;;0.82;;
41333;SDS011;27078;46.428;6.256;2023-04-24T08:22:01;3.45;;;1.00;;
41333;SDS011;27078;46.428;6.256;2023-04-24T08:24:26;2.00;;;0.80;;
41333;SDS011;27078;46.428;6.256;2023-04-24T08:26:52;3.35;;;0.82;;
41333;SDS011;27078;46.428;6.256;2023-04-24T08:29:22;1.63;;;0.70;;
41333;SDS011;27078;46.428;6.256;2023-04-24T08:31:51;2.80;;;0.85;;
41333;SDS011;27078;46.428;6.256;2023-04-24T08:34:16;1.95;;;0.80;;
41333;SDS011;27078;46.428;6.256;2023-04-24T08:36:42;2.35;;;0.80;;
41333;SDS011;27078;46.428;6.256;2023-04-24T08:39:08;1.77;;;0.70;;
41333;SDS011;27078;46.428;6.256;2023-04-24T08:44:34;3.42;;;1.10;;
41333;SDS011;27078;46.428;6.256;2023-04-24T08:50:41;2.67;;;0.65;;
41333;SDS011;27078;46.428;6.256;2023-04-24T09:08:11;3.03;;;0.90;;
41333;SDS011;27078;46.428;6.256;2023-04-24T09:11:03;5.53;;;1.00;;
41333;SDS011;27078;46.428;6.256;2023-04-24T09:14:37;3.28;;;0.93;;
41333;SDS011;27078;46.428;6.256;2023-04-24T09:17:53;1.73;;;0.70;;
41333;SDS011;27078;46.428;6.256;2023-04-24T09:21:10;1.80;;;0.70;;
41333;SDS011;27078;46.428;6.256;2023-04-24T09:24:26;2.80;;;0.85;;
41333;SDS011;27078;46.428;6.256;2023-04-24T09:27:37;2.15;;;0.60;;
41333;SDS011;27078;46.428;6.256;2023-04-24T09:34:13;2.10;;;0.70;;
41333;SDS011;27078;46.428;6.256;2023-04-24T09:37:35;2.05;;;0.70;;
41333;SDS011;27078;46.428;6.256;2023-04-24T09:40:44;2.22;;;0.75;;
41333;SDS011;27078;46.428;6.256;2023-04-24T09:50:53;2.40;;;0.77;;
41333;SDS011;27078;46.428;6.256;2023-04-24T09:54:02;3.38;;;0.80;;
41333;SDS011;27078;46.428;6.256;2023-04-24T10:01:05;4.93;;;0.90;;
41333;SDS011;27078;46.428;6.256;2023-04-24T10:08:08;2.70;;;0.88;;
41333;SDS011;27078;46.428;6.256;2023-04-24T10:11:20;2.65;;;0.95;;
41333;SDS011;27078;46.428;6.256;2023-04-24T10:14:31;1.58;;;0.70;;
41333;SDS011;27078;46.428;6.256;2023-04-24T10:17:44;2.45;;;0.70;;
41333;SDS011;27078;46.428;6.256;2023-04-24T10:21:04;3.33;;;0.80;;
41333;SDS011;27078;46.428;6.256;2023-04-24T10:24:47;3.67;;;1.00;;
41333;SDS011;27078;46.428;6.256;2023-04-24T10:31:49;1.58;;;0.80;;
41333;SDS011;27078;46.428;6.256;2023-04-24T10:35:01;1.83;;;0.85;;
41333;SDS011;27078;46.428;6.256;2023-04-24T10:41:16;2.97;;;1.02;;
41333;SDS011;27078;46.428;6.256;2023-04-24T10:44:36;1.63;;;0.68;;
41333;SDS011;27078;46.428;6.256;2023-04-24T10:51:10;3.00;;;1.00;;
41333;SDS011;27078;46.428;6.256;2023-04-24T11:04:47;2.63;;;0.98;;
41333;SDS011;27078;46.428;6.256;2023-04-24T11:11:22;2.85;;;0.90;;
41333;SDS011;27078;46.428;6.256;2023-04-24T11:17:59;1.58;;;1.00;;
41333;SDS011;27078;46.428;6.256;2023-04-24T11:21:11;3.80;;;0.98;;
41333;SDS011;27078;46.428;6.256;2023-04-24T11:34:38;3.75;;;0.80;;
41333;SDS011;27078;46.428;6.256;2023-04-24T11:37:52;4.57;;;1.00;;
41333;SDS011;27078;46.428;6.256;2023-04-24T11:41:09;2.55;;;0.80;;
41333;SDS011;27078;46.428;6.256;2023-04-24T11:44:19;1.35;;;0.80;;
41333;SDS011;27078;46.428;6.256;2023-04-24T11:47:37;3.42;;;0.90;;
41333;SDS011;27078;46.428;6.256;2023-04-24T11:50:47;2.35;;;0.80;;
41333;SDS011;27078;46.428;6.256;2023-04-24T11:53:58;2.22;;;0.60;;
41333;SDS011;27078;46.428;6.256;2023-04-24T11:57:08;1.70;;;0.80;;
41333;SDS011;27078;46.428;6.256;2023-04-24T12:00:26;2.58;;;0.88;;
41333;SDS011;27078;46.428;6.256;2023-04-24T12:03:47;2.33;;;0.70;;
41333;SDS011;27078;46.428;6.256;2023-04-24T12:10:11;2.33;;;0.80;;
41333;SDS011;27078;46.428;6.256;2023-04-24T12:13:34;3.92;;;0.95;;
41333;SDS011;27078;46.428;6.256;2023-04-24T12:16:47;2.90;;;0.80;;
41333;SDS011;27078;46.428;6.256;2023-04-24T12:19:57;2.08;;;0.77;;
41333;SDS011;27078;46.428;6.256;2023-04-24T12:23:04;2.20;;;0.60;;
41333;SDS011;27078;46.428;6.256;2023-04-24T12:26:30;1.98;;;0.73;;
41333;SDS011;27078;46.428;6.256;2023-04-24T12:33:12;2.17;;;0.88;;
41333;SDS011;27078;46.428;6.256;2023-04-24T12:36:27;1.92;;;0.70;;
41333;SDS011;27078;46.428;6.256;2023-04-24T12:43:02;2.60;;;0.85;;
41333;SDS011;27078;46.428;6.256;2023-04-24T12:46:24;2.28;;;0.60;;
41333;SDS011;27078;46.428;6.256;2023-04-24T12:49:34;2.13;;;0.67;;
41333;SDS011;27078;46.428;6.256;2023-04-24T12:52:40;2.13;;;0.90;;
41333;SDS011;27078;46.428;6.256;2023-04-24T12:59:28;5.00;;;0.80;;
41333;SDS011;27078;46.428;6.256;2023-04-24T13:02:39;3.50;;;0.80;;
41333;SDS011;27078;46.428;6.256;2023-04-24T13:05:47;3.28;;;0.70;;
41333;SDS011;27078;46.428;6.256;2023-04-24T13:08:55;2.85;;;0.60;;
41333;SDS011;27078;46.428;6.256;2023-04-24T13:12:04;2.30;;;0.80;;
41333;SDS011;27078;46.428;6.256;2023-04-24T13:15:15;2.83;;;0.70;;
41333;SDS011;27078;46.428;6.256;2023-04-24T13:22:05;2.45;;;0.77;;
41333;SDS011;27078;46.428;6.256;2023-04-24T13:25:50;2.90;;;0.73;;
41333;SDS011;27078;46.428;6.256;2023-04-24T13:29:07;2.17;;;0.80;;
41333;SDS011;27078;46.428;6.256;2023-04-24T13:32:17;2.10;;;0.70;;
41333;SDS011;27078;46.428;6.256;2023-04-24T13:35:34;2.15;;;0.70;;
41333;SDS011;27078;46.428;6.256;2023-04-24T13:38:41;2.10;;;0.80;;
41333;SDS011;27078;46.428;6.256;2023-04-24T13:41:48;3.28;;;0.93;;
41333;SDS011;27078;46.428;6.256;2023-04-24T13:44:57;1.92;;;0.73;;
41333;SDS011;27078;46.428;6.256;2023-04-24T13:48:14;1.75;;;0.73;;
41333;SDS011;27078;46.428;6.256;2023-04-24T13:51:25;2.90;;;0.63;;
41333;SDS011;27078;46.428;6.256;2023-04-24T13:54:38;3.67;;;0.77;;
41333;SDS011;27078;46.428;6.256;2023-04-24T13:57:46;2.00;;;0.80;;
41333;SDS011;27078;46.428;6.256;2023-04-24T14:00:56;2.72;;;0.90;;
41333;SDS011;27078;46.428;6.256;2023-04-24T14:04:06;3.70;;;0.70;;
41333;SDS011;27078;46.428;6.256;2023-04-24T14:07:12;1.88;;;0.75;;
41333;SDS011;27078;46.428;6.256;2023-04-24T14:10:19;2.15;;;0.70;;
41333;SDS011;27078;46.428;6.256;2023-04-24T14:13:34;1.52;;;0.80;;
41333;SDS011;27078;46.428;6.256;2023-04-24T14:16:40;1.92;;;0.60;;
41333;SDS011;27078;46.428;6.256;2023-04-24T14:19:50;2.85;;;0.70;;
41333;SDS011;27078;46.428;6.256;2023-04-24T14:23:10;1.33;;;0.60;;
41333;SDS011;27078;46.428;6.256;2023-04-24T14:26:15;3.97;;;0.80;;
41333;SDS011;27078;46.428;6.256;2023-04-24T14:29:28;2.20;;;0.93;;
41333;SDS011;27078;46.428;6.256;2023-04-24T14:32:32;1.83;;;0.75;;
41333;SDS011;27078;46.428;6.256;2023-04-24T14:35:39;2.33;;;0.90;;
41333;SDS011;27078;46.428;6.256;2023-04-24T14:38:44;2.67;;;0.70;;
41333;SDS011;27078;46.428;6.256;2023-04-24T14:41:55;3.38;;;0.82;;
41333;SDS011;27078;46.428;6.256;2023-04-24T14:45:02;1.70;;;0.80;;
41333;SDS011;27078;46.428;6.256;2023-04-24T14:48:18;2.40;;;0.80;;
41333;SDS011;27078;46.428;6.256;2023-04-24T14:51:25;1.58;;;0.70;;
41333;SDS011;27078;46.428;6.256;2023-04-24T14:54:40;2.25;;;0.98;;
41333;SDS011;27078;46.428;6.256;2023-04-24T14:57:46;3.00;;;0.90;;
41333;SDS011;27078;46.428;6.256;2023-04-24T15:00:51;1.70;;;0.77;;
41333;SDS011;27078;46.428;6.256;2023-04-24T15:03:58;4.30;;;0.82;;
41333;SDS011;27078;46.428;6.256;2023-04-24T15:07:06;1.77;;;0.77;;
41333;SDS011;27078;46.428;6.256;2023-04-24T15:10:15;2.95;;;0.80;;
41333;SDS011;27078;46.428;6.256;2023-04-24T15:13:27;2.33;;;0.85;;
41333;SDS011;27078;46.428;6.256;2023-04-24T15:16:31;2.22;;;0.77;;
41333;SDS011;27078;46.428;6.256;2023-04-24T15:19:38;2.00;;;0.77;;
41333;SDS011;27078;46.428;6.256;2023-04-24T15:22:53;1.58;;;0.63;;
41333;SDS011;27078;46.428;6.256;2023-04-24T15:26:02;1.98;;;0.70;;
41333;SDS011;27078;46.428;6.256;2023-04-24T15:28:44;2.13;;;0.77;;
41333;SDS011;27078;46.428;6.256;2023-04-24T15:31:12;2.65;;;0.80;;
41333;SDS011;27078;46.428;6.256;2023-04-24T15:33:41;2.47;;;0.77;;
41333;SDS011;27078;46.428;6.256;2023-04-24T15:36:13;2.55;;;1.10;;
41333;SDS011;27078;46.428;6.256;2023-04-24T15:38:53;2.97;;;1.10;;
41333;SDS011;27078;46.428;6.256;2023-04-24T15:41:18;1.70;;;0.80;;
41333;SDS011;27078;46.428;6.256;2023-04-24T15:43:49;2.15;;;0.85;;
41333;SDS011;27078;46.428;6.256;2023-04-24T15:46:21;3.20;;;1.00;;
41333;SDS011;27078;46.428;6.256;2023-04-24T15:48:53;2.13;;;0.90;;
41333;SDS011;27078;46.428;6.256;2023-04-24T15:51:38;3.42;;;0.95;;
41333;SDS011;27078;46.428;6.256;2023-04-24T15:54:30;2.25;;;0.90;;
41333;SDS011;27078;46.428;6.256;2023-04-24T15:57:37;2.22;;;1.00;;
41333;SDS011;27078;46.428;6.256;2023-04-24T16:00:54;3.47;;;1.08;;
41333;SDS011;27078;46.428;6.256;2023-04-24T16:04:00;2.75;;;1.20;;
41333;SDS011;27078;46.428;6.256;2023-04-24T16:07:16;2.70;;;1.00;;
41333;SDS011;27078;46.428;6.256;2023-04-24T16:10:39;3.22;;;0.90;;
41333;SDS011;27078;46.428;6.256;2023-04-24T16:13:52;3.85;;;1.13;;
41333;SDS011;27078;46.428;6.256;2023-04-24T16:16:53;2.22;;;0.88;;
41333;SDS011;27078;46.428;6.256;2023-04-24T16:19:41;2.97;;;0.80;;
41333;SDS011;27078;46.428;6.256;2023-04-24T16:22:28;1.88;;;0.80;;
41333;SDS011;27078;46.428;6.256;2023-04-24T16:25:37;3.38;;;0.75;;
41333;SDS011;27078;46.428;6.256;2023-04-24T16:28:42;2.70;;;1.00;;
41333;SDS011;27078;46.428;6.256;2023-04-24T16:31:48;4.38;;;1.20;;
41333;SDS011;27078;46.428;6.256;2023-04-24T16:35:04;2.58;;;1.30;;
41333;SDS011;27078;46.428;6.256;2023-04-24T16:38:10;2.92;;;1.23;;
41333;SDS011;27078;46.428;6.256;2023-04-24T16:41:16;2.22;;;1.05;;
41333;SDS011;27078;46.428;6.256;2023-04-24T16:44:23;3.80;;;1.38;;
41333;SDS011;27078;46.428;6.256;2023-04-24T16:47:33;4.13;;;1.10;;
41333;SDS011;27078;46.428;6.256;2023-04-24T16:50:44;3.30;;;1.10;;
41333;SDS011;27078;46.428;6.256;2023-04-24T16:53:47;3.60;;;1.40;;
41333;SDS011;27078;46.428;6.256;2023-04-24T16:56:56;2.85;;;1.10;;
41333;SDS011;27078;46.428;6.256;2023-04-24T17:00:05;5.43;;;1.50;;
41333;SDS011;27078;46.428;6.256;2023-04-24T17:03:15;3.25;;;1.40;;
41333;SDS011;27078;46.428;6.256;2023-04-24T17:06:24;4.43;;;1.20;;
41333;SDS011;27078;46.428;6.256;2023-04-24T17:09:34;2.55;;;1.30;;
41333;SDS011;27078;46.428;6.256;2023-04-24T17:12:43;3.45;;;1.33;;
41333;SDS011;27078;46.428;6.256;2023-04-24T17:16:07;4.03;;;1.40;;
41333;SDS011;27078;46.428;6.256;2023-04-24T17:19:30;2.80;;;1.30;;
41333;SDS011;27078;46.428;6.256;2023-04-24T17:22:39;5.35;;;1.40;;
41333;SDS011;27078;46.428;6.256;2023-04-24T17:25:51;3.73;;;1.30;;
41333;SDS011;27078;46.428;6.256;2023-04-24T17:29:03;3.70;;;1.38;;
41333;SDS011;27078;46.428;6.256;2023-04-24T17:32:12;4.45;;;1.60;;
41333;SDS011;27078;46.428;6.256;2023-04-24T17:35:21;4.10;;;1.58;;
41333;SDS011;27078;46.428;6.256;2023-04-24T17:38:32;4.93;;;1.50;;
41333;SDS011;27078;46.428;6.256;2023-04-24T17:41:42;3.47;;;1.30;;
41333;SDS011;27078;46.428;6.256;2023-04-24T17:45:00;3.70;;;1.38;;
41333;SDS011;27078;46.428;6.256;2023-04-24T17:48:13;5.90;;;1.42;;
41333;SDS011;27078;46.428;6.256;2023-04-24T17:51:32;6.28;;;1.35;;
41333;SDS011;27078;46.428;6.256;2023-04-24T17:54:42;3.78;;;1.35;;
41333;SDS011;27078;46.428;6.256;2023-04-24T17:57:51;3.88;;;1.20;;